sensor_id;sensor_type;location;lat;lon;timestamp;P1;durP1;ratioP1;P2;durP2;ratioP2
15293;SDS011;7748;52.474;13.454;2023-04-10T00:02:01;34.80;;;22.50;;
15293;SDS011;7748;52.474;13.454;2023-04-10T00:04:29;40.47;;;21.67;;
15293;SDS011;7748;52.474;13.454;2023-04-10T00:06:57;37.60;;;21.83;;
15293;SDS011;7748;52.474;13.454;2023-04-10T00:09:25;37.47;;;22.47;;
15293;SDS011;7748;52.474;13.454;2023-04-10T00:11:54;41.07;;;23.63;;
15293;SDS011;7748;52.474;13.454;2023-04-10T00:14:23;42.63;;;23.83;;
15293;SDS011;7748;52.474;13.454;2023-04-10T00:16:52;42.33;;;24.20;;
15293;SDS011;7748;52.474;13.454;2023-04-10T00:19:20;36.10;;;22.80;;
15293;SDS011;7748;52.474;13.454;2023-04-10T00:21:48;38.33;;;23.50;;
15293;SDS011;7748;52.474;13.454;2023-04-10T00:24:15;37.83;;;21.10;;
15293;SDS011;7748;52.474;13.454;2023-04-10T00:26:43;42.83;;;22.10;;
15293;SDS011;7748;52.474;13.454;2023-04-10T00:29:11;38.83;;;22.17;;
15293;SDS011;7748;52.474;13.454;2023-04-10T00:31:39;43.57;;;24.23;;
15293;SDS011;7748;52.474;13.454;2023-04-10T00:34:08;37.77;;;23.03;;
15293;SDS011;7748;52.474;13.454;2023-04-10T00:36:37;37.70;;;23.27;;
15293;SDS011;7748;52.474;13.454;2023-04-10T00:39:04;40.17;;;24.50;;
15293;SDS011;7748;52.474;13.454;2023-04-10T00:41:33;41.27;;;24.30;;
15293;SDS011;7748;52.474;13.454;2023-04-10T00:44:01;43.37;;;23.63;;
15293;SDS011;7748;52.474;13.454;2023-04-10T00:46:30;34.47;;;22.60;;
15293;SDS011;7748;52.474;13.454;2023-04-10T00:49:00;30.47;;;18.80;;
15293;SDS011;7748;52.474;13.454;2023-04-10T00:51:30;35.53;;;19.50;;
15293;SDS011;7748;52.474;13.454;2023-04-10T00:54:00;33.83;;;19.40;;
15293;SDS011;7748;52.474;13.454;2023-04-10T00:56:29;28.20;;;16.83;;
15293;SDS011;7748;52.474;13.454;2023-04-10T00:58:58;33.43;;;19.43;;
15293;SDS011;7748;52.474;13.454;2023-04-10T01:01:30;27.53;;;17.27;;
15293;SDS011;7748;52.474;13.454;2023-04-10T01:03:58;34.13;;;19.33;;
15293;SDS011;7748;52.474;13.454;2023-04-10T01:06:29;31.47;;;18.57;;
15293;SDS011;7748;52.474;13.454;2023-04-10T01:09:16;33.87;;;20.53;;
15293;SDS011;7748;52.474;13.454;2023-04-10T01:11:52;35.70;;;20.13;;
15293;SDS011;7748;52.474;13.454;2023-04-10T01:14:24;32.23;;;19.93;;
15293;SDS011;7748;52.474;13.454;2023-04-10T01:17:00;29.57;;;18.00;;
15293;SDS011;7748;52.474;13.454;2023-04-10T01:19:35;30.10;;;19.37;;
15293;SDS011;7748;52.474;13.454;2023-04-10T01:22:32;33.07;;;19.07;;
15293;SDS011;7748;52.474;13.454;2023-04-10T01:25:06;38.67;;;24.43;;
15293;SDS011;7748;52.474;13.454;2023-04-10T01:27:48;33.13;;;21.17;;
15293;SDS011;7748;52.474;13.454;2023-04-10T01:30:28;33.50;;;21.73;;
15293;SDS011;7748;52.474;13.454;2023-04-10T01:32:58;37.53;;;21.50;;
15293;SDS011;7748;52.474;13.454;2023-04-10T01:35:28;35.83;;;21.10;;
15293;SDS011;7748;52.474;13.454;2023-04-10T01:37:58;39.20;;;21.97;;
15293;SDS011;7748;52.474;13.454;2023-04-10T01:40:28;38.50;;;22.00;;
15293;SDS011;7748;52.474;13.454;2023-04-10T01:42:58;41.87;;;22.80;;
15293;SDS011;7748;52.474;13.454;2023-04-10T01:45:29;45.10;;;25.07;;
15293;SDS011;7748;52.474;13.454;2023-04-10T01:47:58;38.27;;;23.70;;
15293;SDS011;7748;52.474;13.454;2023-04-10T01:50:27;45.10;;;24.33;;
15293;SDS011;7748;52.474;13.454;2023-04-10T01:52:56;35.83;;;22.43;;
15293;SDS011;7748;52.474;13.454;2023-04-10T01:55:25;41.87;;;25.13;;
15293;SDS011;7748;52.474;13.454;2023-04-10T01:57:54;45.20;;;25.30;;
15293;SDS011;7748;52.474;13.454;2023-04-10T02:00:22;49.30;;;27.20;;
15293;SDS011;7748;52.474;13.454;2023-04-10T02:02:51;42.97;;;26.13;;
15293;SDS011;7748;52.474;13.454;2023-04-10T02:05:20;45.50;;;26.83;;
15293;SDS011;7748;52.474;13.454;2023-04-10T02:07:50;41.70;;;25.50;;
15293;SDS011;7748;52.474;13.454;2023-04-10T02:10:28;39.23;;;24.87;;
15293;SDS011;7748;52.474;13.454;2023-04-10T02:13:01;39.63;;;23.97;;
15293;SDS011;7748;52.474;13.454;2023-04-10T02:15:33;44.37;;;24.60;;
15293;SDS011;7748;52.474;13.454;2023-04-10T02:18:04;40.17;;;23.37;;
15293;SDS011;7748;52.474;13.454;2023-04-10T02:20:33;42.27;;;25.27;;
15293;SDS011;7748;52.474;13.454;2023-04-10T02:23:02;51.00;;;25.70;;
15293;SDS011;7748;52.474;13.454;2023-04-10T02:25:30;44.93;;;26.83;;
15293;SDS011;7748;52.474;13.454;2023-04-10T02:28:02;44.57;;;26.50;;
15293;SDS011;7748;52.474;13.454;2023-04-10T02:30:30;42.80;;;25.93;;
15293;SDS011;7748;52.474;13.454;2023-04-10T02:32:58;47.33;;;26.97;;
15293;SDS011;7748;52.474;13.454;2023-04-10T02:35:28;48.70;;;27.43;;
15293;SDS011;7748;52.474;13.454;2023-04-10T02:37:56;48.60;;;27.57;;
15293;SDS011;7748;52.474;13.454;2023-04-10T02:40:24;44.37;;;27.80;;
15293;SDS011;7748;52.474;13.454;2023-04-10T02:42:51;73.70;;;42.77;;
15293;SDS011;7748;52.474;13.454;2023-04-10T02:45:19;47.33;;;26.63;;
15293;SDS011;7748;52.474;13.454;2023-04-10T02:47:47;53.10;;;29.27;;
15293;SDS011;7748;52.474;13.454;2023-04-10T02:50:15;41.67;;;27.00;;
15293;SDS011;7748;52.474;13.454;2023-04-10T02:52:45;47.70;;;28.90;;
15293;SDS011;7748;52.474;13.454;2023-04-10T02:55:12;50.37;;;28.63;;
15293;SDS011;7748;52.474;13.454;2023-04-10T02:57:40;46.20;;;29.20;;
15293;SDS011;7748;52.474;13.454;2023-04-10T03:00:09;48.67;;;27.60;;
15293;SDS011;7748;52.474;13.454;2023-04-10T03:02:38;54.73;;;28.70;;
15293;SDS011;7748;52.474;13.454;2023-04-10T03:05:06;49.27;;;29.60;;
15293;SDS011;7748;52.474;13.454;2023-04-10T03:07:34;46.77;;;27.73;;
15293;SDS011;7748;52.474;13.454;2023-04-10T03:10:04;51.13;;;27.93;;
15293;SDS011;7748;52.474;13.454;2023-04-10T03:12:32;46.10;;;27.83;;
15293;SDS011;7748;52.474;13.454;2023-04-10T03:15:00;45.47;;;27.97;;
15293;SDS011;7748;52.474;13.454;2023-04-10T03:17:28;50.90;;;28.03;;
15293;SDS011;7748;52.474;13.454;2023-04-10T03:19:56;49.50;;;27.70;;
15293;SDS011;7748;52.474;13.454;2023-04-10T03:22:24;50.13;;;28.87;;
15293;SDS011;7748;52.474;13.454;2023-04-10T03:24:52;48.17;;;28.67;;
15293;SDS011;7748;52.474;13.454;2023-04-10T03:27:22;46.93;;;28.90;;
15293;SDS011;7748;52.474;13.454;2023-04-10T03:29:50;44.40;;;27.27;;
15293;SDS011;7748;52.474;13.454;2023-04-10T03:32:18;44.47;;;26.67;;
15293;SDS011;7748;52.474;13.454;2023-04-10T03:34:46;48.50;;;28.77;;
15293;SDS011;7748;52.474;13.454;2023-04-10T03:37:14;53.17;;;28.60;;
15293;SDS011;7748;52.474;13.454;2023-04-10T03:39:42;50.80;;;27.90;;
15293;SDS011;7748;52.474;13.454;2023-04-10T03:42:09;46.23;;;29.73;;
15293;SDS011;7748;52.474;13.454;2023-04-10T03:44:39;42.43;;;27.20;;
15293;SDS011;7748;52.474;13.454;2023-04-10T03:47:07;41.67;;;26.20;;
15293;SDS011;7748;52.474;13.454;2023-04-10T03:49:35;46.50;;;26.43;;
15293;SDS011;7748;52.474;13.454;2023-04-10T03:52:03;44.00;;;26.37;;
15293;SDS011;7748;52.474;13.454;2023-04-10T03:54:31;39.90;;;25.07;;
15293;SDS011;7748;52.474;13.454;2023-04-10T03:56:58;38.57;;;23.40;;
15293;SDS011;7748;52.474;13.454;2023-04-10T03:59:27;37.97;;;23.97;;
15293;SDS011;7748;52.474;13.454;2023-04-10T04:02:06;42.37;;;25.17;;
15293;SDS011;7748;52.474;13.454;2023-04-10T04:04:34;38.30;;;24.53;;
15293;SDS011;7748;52.474;13.454;2023-04-10T04:07:02;44.27;;;24.27;;
15293;SDS011;7748;52.474;13.454;2023-04-10T04:09:30;37.10;;;22.60;;
15293;SDS011;7748;52.474;13.454;2023-04-10T04:11:58;46.50;;;25.03;;
15293;SDS011;7748;52.474;13.454;2023-04-10T04:14:26;43.13;;;24.47;;
15293;SDS011;7748;52.474;13.454;2023-04-10T04:16:54;39.77;;;24.27;;
15293;SDS011;7748;52.474;13.454;2023-04-10T04:19:24;49.83;;;25.50;;
15293;SDS011;7748;52.474;13.454;2023-04-10T04:21:51;40.53;;;24.90;;
15293;SDS011;7748;52.474;13.454;2023-04-10T04:24:19;41.37;;;24.47;;
15293;SDS011;7748;52.474;13.454;2023-04-10T04:26:47;46.83;;;25.13;;
15293;SDS011;7748;52.474;13.454;2023-04-10T04:29:15;43.27;;;24.07;;
15293;SDS011;7748;52.474;13.454;2023-04-10T04:31:43;44.10;;;25.87;;
15293;SDS011;7748;52.474;13.454;2023-04-10T04:34:11;40.80;;;25.33;;
15293;SDS011;7748;52.474;13.454;2023-04-10T04:36:40;40.47;;;26.47;;
15293;SDS011;7748;52.474;13.454;2023-04-10T04:39:08;46.80;;;27.97;;
15293;SDS011;7748;52.474;13.454;2023-04-10T04:41:36;46.53;;;28.83;;
15293;SDS011;7748;52.474;13.454;2023-04-10T04:44:04;43.77;;;25.87;;
15293;SDS011;7748;52.474;13.454;2023-04-10T04:46:32;48.33;;;26.27;;
15293;SDS011;7748;52.474;13.454;2023-04-10T04:49:00;46.40;;;26.80;;
15293;SDS011;7748;52.474;13.454;2023-04-10T04:51:28;42.73;;;25.97;;
15293;SDS011;7748;52.474;13.454;2023-04-10T04:53:57;47.50;;;26.67;;
15293;SDS011;7748;52.474;13.454;2023-04-10T04:56:25;44.97;;;25.20;;
15293;SDS011;7748;52.474;13.454;2023-04-10T04:58:53;44.97;;;25.23;;
15293;SDS011;7748;52.474;13.454;2023-04-10T05:01:21;46.40;;;27.17;;
15293;SDS011;7748;52.474;13.454;2023-04-10T05:03:49;40.43;;;24.20;;
15293;SDS011;7748;52.474;13.454;2023-04-10T05:06:17;46.63;;;26.60;;
15293;SDS011;7748;52.474;13.454;2023-04-10T05:08:45;47.93;;;26.40;;
15293;SDS011;7748;52.474;13.454;2023-04-10T05:11:14;43.13;;;24.73;;
15293;SDS011;7748;52.474;13.454;2023-04-10T05:13:42;42.80;;;26.13;;
15293;SDS011;7748;52.474;13.454;2023-04-10T05:16:10;42.77;;;24.53;;
15293;SDS011;7748;52.474;13.454;2023-04-10T05:18:38;43.60;;;25.73;;
15293;SDS011;7748;52.474;13.454;2023-04-10T05:21:08;38.70;;;24.80;;
15293;SDS011;7748;52.474;13.454;2023-04-10T05:23:35;37.30;;;23.80;;
15293;SDS011;7748;52.474;13.454;2023-04-10T05:26:03;41.37;;;24.87;;
15293;SDS011;7748;52.474;13.454;2023-04-10T05:28:33;40.27;;;25.30;;
15293;SDS011;7748;52.474;13.454;2023-04-10T05:31:01;39.07;;;23.10;;
15293;SDS011;7748;52.474;13.454;2023-04-10T05:33:28;43.03;;;23.47;;
15293;SDS011;7748;52.474;13.454;2023-04-10T05:35:56;38.40;;;22.77;;
15293;SDS011;7748;52.474;13.454;2023-04-10T05:38:24;33.13;;;21.30;;
15293;SDS011;7748;52.474;13.454;2023-04-10T05:40:52;34.40;;;21.63;;
15293;SDS011;7748;52.474;13.454;2023-04-10T05:43:21;30.77;;;20.10;;
15293;SDS011;7748;52.474;13.454;2023-04-10T05:45:50;29.00;;;20.07;;
15293;SDS011;7748;52.474;13.454;2023-04-10T05:48:18;33.13;;;21.00;;
15293;SDS011;7748;52.474;13.454;2023-04-10T05:50:46;29.50;;;18.67;;
15293;SDS011;7748;52.474;13.454;2023-04-10T05:53:13;36.70;;;19.57;;
15293;SDS011;7748;52.474;13.454;2023-04-10T05:55:44;33.07;;;18.20;;
15293;SDS011;7748;52.474;13.454;2023-04-10T05:58:11;29.43;;;18.63;;
15293;SDS011;7748;52.474;13.454;2023-04-10T06:00:39;35.53;;;18.57;;
15293;SDS011;7748;52.474;13.454;2023-04-10T06:03:08;28.53;;;18.73;;
15293;SDS011;7748;52.474;13.454;2023-04-10T06:05:36;28.70;;;17.47;;
15293;SDS011;7748;52.474;13.454;2023-04-10T06:08:06;23.33;;;15.93;;
15293;SDS011;7748;52.474;13.454;2023-04-10T06:10:34;23.47;;;15.60;;
15293;SDS011;7748;52.474;13.454;2023-04-10T06:13:02;23.57;;;15.37;;
15293;SDS011;7748;52.474;13.454;2023-04-10T06:15:30;27.93;;;16.77;;
15293;SDS011;7748;52.474;13.454;2023-04-10T06:17:58;27.17;;;15.00;;
15293;SDS011;7748;52.474;13.454;2023-04-10T06:20:27;22.87;;;14.43;;
15293;SDS011;7748;52.474;13.454;2023-04-10T06:22:55;22.43;;;15.70;;
15293;SDS011;7748;52.474;13.454;2023-04-10T06:25:23;26.10;;;14.60;;
15293;SDS011;7748;52.474;13.454;2023-04-10T06:27:51;24.03;;;14.83;;
15293;SDS011;7748;52.474;13.454;2023-04-10T06:30:19;24.77;;;14.63;;
15293;SDS011;7748;52.474;13.454;2023-04-10T06:32:47;29.87;;;15.10;;
15293;SDS011;7748;52.474;13.454;2023-04-10T06:35:15;21.23;;;14.10;;
15293;SDS011;7748;52.474;13.454;2023-04-10T06:37:44;20.50;;;14.40;;
15293;SDS011;7748;52.474;13.454;2023-04-10T06:40:12;22.53;;;14.87;;
15293;SDS011;7748;52.474;13.454;2023-04-10T06:42:41;24.40;;;15.33;;
15293;SDS011;7748;52.474;13.454;2023-04-10T06:45:09;24.63;;;14.83;;
15293;SDS011;7748;52.474;13.454;2023-04-10T06:47:37;25.10;;;16.43;;
15293;SDS011;7748;52.474;13.454;2023-04-10T06:50:05;26.80;;;16.57;;
15293;SDS011;7748;52.474;13.454;2023-04-10T06:52:33;24.60;;;16.80;;
15293;SDS011;7748;52.474;13.454;2023-04-10T06:55:03;32.63;;;20.10;;
15293;SDS011;7748;52.474;13.454;2023-04-10T06:57:31;29.83;;;19.63;;
15293;SDS011;7748;52.474;13.454;2023-04-10T06:59:59;36.70;;;21.20;;
15293;SDS011;7748;52.474;13.454;2023-04-10T07:02:27;35.43;;;21.80;;
15293;SDS011;7748;52.474;13.454;2023-04-10T07:04:55;33.53;;;22.23;;
15293;SDS011;7748;52.474;13.454;2023-04-10T07:07:23;37.03;;;22.93;;
15293;SDS011;7748;52.474;13.454;2023-04-10T07:09:52;32.80;;;21.17;;
15293;SDS011;7748;52.474;13.454;2023-04-10T07:12:21;35.03;;;23.50;;
15293;SDS011;7748;52.474;13.454;2023-04-10T07:14:48;40.17;;;24.20;;
15293;SDS011;7748;52.474;13.454;2023-04-10T07:17:16;40.67;;;24.10;;
15293;SDS011;7748;52.474;13.454;2023-04-10T07:19:44;39.33;;;24.23;;
15293;SDS011;7748;52.474;13.454;2023-04-10T07:22:12;35.73;;;23.40;;
15293;SDS011;7748;52.474;13.454;2023-04-10T07:24:41;36.90;;;25.17;;
15293;SDS011;7748;52.474;13.454;2023-04-10T07:27:09;37.70;;;26.20;;
15293;SDS011;7748;52.474;13.454;2023-04-10T07:29:38;35.83;;;25.27;;
15293;SDS011;7748;52.474;13.454;2023-04-10T07:32:06;38.10;;;25.17;;
15293;SDS011;7748;52.474;13.454;2023-04-10T07:34:34;40.13;;;27.27;;
15293;SDS011;7748;52.474;13.454;2023-04-10T07:37:02;34.57;;;24.37;;
15293;SDS011;7748;52.474;13.454;2023-04-10T07:39:30;40.20;;;25.27;;
15293;SDS011;7748;52.474;13.454;2023-04-10T07:41:58;38.00;;;25.70;;
15293;SDS011;7748;52.474;13.454;2023-04-10T07:44:26;44.83;;;25.40;;
15293;SDS011;7748;52.474;13.454;2023-04-10T07:46:56;40.40;;;25.93;;
15293;SDS011;7748;52.474;13.454;2023-04-10T07:49:24;37.60;;;25.77;;
15293;SDS011;7748;52.474;13.454;2023-04-10T07:51:52;39.83;;;26.17;;
15293;SDS011;7748;52.474;13.454;2023-04-10T07:54:20;42.20;;;26.37;;
15293;SDS011;7748;52.474;13.454;2023-04-10T07:56:47;43.53;;;25.17;;
15293;SDS011;7748;52.474;13.454;2023-04-10T07:59:18;41.63;;;24.77;;
15293;SDS011;7748;52.474;13.454;2023-04-10T08:01:46;36.70;;;24.43;;
15293;SDS011;7748;52.474;13.454;2023-04-10T08:04:15;41.03;;;25.00;;
15293;SDS011;7748;52.474;13.454;2023-04-10T08:06:44;37.53;;;24.30;;
15293;SDS011;7748;52.474;13.454;2023-04-10T08:09:14;40.23;;;26.63;;
15293;SDS011;7748;52.474;13.454;2023-04-10T08:11:42;42.63;;;26.03;;
15293;SDS011;7748;52.474;13.454;2023-04-10T08:14:10;41.83;;;25.83;;
15293;SDS011;7748;52.474;13.454;2023-04-10T08:16:43;49.10;;;26.67;;
15293;SDS011;7748;52.474;13.454;2023-04-10T08:19:11;47.43;;;25.97;;
15293;SDS011;7748;52.474;13.454;2023-04-10T08:21:40;51.50;;;25.40;;
15293;SDS011;7748;52.474;13.454;2023-04-10T08:24:08;38.10;;;23.63;;
15293;SDS011;7748;52.474;13.454;2023-04-10T08:26:36;35.53;;;21.70;;
15293;SDS011;7748;52.474;13.454;2023-04-10T08:29:04;34.23;;;19.37;;
15293;SDS011;7748;52.474;13.454;2023-04-10T08:31:32;37.60;;;23.40;;
15293;SDS011;7748;52.474;13.454;2023-04-10T08:34:01;37.17;;;22.50;;
15293;SDS011;7748;52.474;13.454;2023-04-10T08:36:30;42.40;;;23.13;;
15293;SDS011;7748;52.474;13.454;2023-04-10T08:38:59;33.20;;;22.13;;
15293;SDS011;7748;52.474;13.454;2023-04-10T08:41:27;31.23;;;19.50;;
15293;SDS011;7748;52.474;13.454;2023-04-10T08:43:55;32.93;;;19.53;;
15293;SDS011;7748;52.474;13.454;2023-04-10T08:46:23;30.63;;;19.40;;
15293;SDS011;7748;52.474;13.454;2023-04-10T08:48:54;34.03;;;19.23;;
15293;SDS011;7748;52.474;13.454;2023-04-10T08:51:27;29.40;;;18.67;;
15293;SDS011;7748;52.474;13.454;2023-04-10T08:54:01;32.47;;;18.53;;
15293;SDS011;7748;52.474;13.454;2023-04-10T08:56:33;29.43;;;17.03;;
15293;SDS011;7748;52.474;13.454;2023-04-10T08:59:03;33.03;;;18.77;;
15293;SDS011;7748;52.474;13.454;2023-04-10T09:01:31;28.63;;;17.60;;
15293;SDS011;7748;52.474;13.454;2023-04-10T09:04:01;28.13;;;17.47;;
15293;SDS011;7748;52.474;13.454;2023-04-10T09:06:29;28.07;;;17.80;;
15293;SDS011;7748;52.474;13.454;2023-04-10T09:08:57;32.63;;;18.37;;
15293;SDS011;7748;52.474;13.454;2023-04-10T09:14:34;32.97;;;18.47;;
15293;SDS011;7748;52.474;13.454;2023-04-10T09:17:10;27.73;;;17.43;;
15293;SDS011;7748;52.474;13.454;2023-04-10T09:19:40;25.97;;;15.67;;
15293;SDS011;7748;52.474;13.454;2023-04-10T09:22:08;23.87;;;15.00;;
15293;SDS011;7748;52.474;13.454;2023-04-10T09:24:37;23.50;;;15.80;;
15293;SDS011;7748;52.474;13.454;2023-04-10T09:27:08;23.30;;;15.17;;
15293;SDS011;7748;52.474;13.454;2023-04-10T09:29:44;26.43;;;15.17;;
15293;SDS011;7748;52.474;13.454;2023-04-10T09:32:25;22.37;;;14.23;;
15293;SDS011;7748;52.474;13.454;2023-04-10T09:35:03;22.00;;;14.40;;
15293;SDS011;7748;52.474;13.454;2023-04-10T09:37:32;26.97;;;14.83;;
15293;SDS011;7748;52.474;13.454;2023-04-10T09:40:01;25.30;;;14.97;;
15293;SDS011;7748;52.474;13.454;2023-04-10T09:42:29;23.47;;;14.20;;
15293;SDS011;7748;52.474;13.454;2023-04-10T09:45:00;22.13;;;14.13;;
15293;SDS011;7748;52.474;13.454;2023-04-10T09:47:28;22.10;;;14.10;;
15293;SDS011;7748;52.474;13.454;2023-04-10T09:49:57;20.87;;;14.30;;
15293;SDS011;7748;52.474;13.454;2023-04-10T09:52:27;20.30;;;13.80;;
15293;SDS011;7748;52.474;13.454;2023-04-10T09:54:56;21.53;;;14.03;;
15293;SDS011;7748;52.474;13.454;2023-04-10T09:57:25;22.07;;;14.17;;
15293;SDS011;7748;52.474;13.454;2023-04-10T09:59:55;21.10;;;13.57;;
15293;SDS011;7748;52.474;13.454;2023-04-10T10:02:27;22.67;;;14.37;;
15293;SDS011;7748;52.474;13.454;2023-04-10T10:04:57;23.23;;;14.03;;
15293;SDS011;7748;52.474;13.454;2023-04-10T10:07:27;23.30;;;14.47;;
15293;SDS011;7748;52.474;13.454;2023-04-10T10:09:56;23.83;;;14.07;;
15293;SDS011;7748;52.474;13.454;2023-04-10T10:12:25;21.23;;;12.30;;
15293;SDS011;7748;52.474;13.454;2023-04-10T10:15:03;22.50;;;12.17;;
15293;SDS011;7748;52.474;13.454;2023-04-10T10:17:38;17.93;;;12.00;;
15293;SDS011;7748;52.474;13.454;2023-04-10T10:20:12;20.90;;;12.20;;
15293;SDS011;7748;52.474;13.454;2023-04-10T10:22:44;17.80;;;11.47;;
15293;SDS011;7748;52.474;13.454;2023-04-10T10:25:12;23.47;;;11.63;;
15293;SDS011;7748;52.474;13.454;2023-04-10T10:27:41;18.37;;;11.63;;
15293;SDS011;7748;52.474;13.454;2023-04-10T10:30:09;15.87;;;10.23;;
15293;SDS011;7748;52.474;13.454;2023-04-10T10:32:55;19.10;;;9.70;;
15293;SDS011;7748;52.474;13.454;2023-04-10T10:35:25;17.50;;;10.03;;
15293;SDS011;7748;52.474;13.454;2023-04-10T10:37:56;15.90;;;8.93;;
15293;SDS011;7748;52.474;13.454;2023-04-10T10:40:27;13.73;;;9.60;;
15293;SDS011;7748;52.474;13.454;2023-04-10T10:43:00;16.00;;;9.63;;
15293;SDS011;7748;52.474;13.454;2023-04-10T10:45:36;19.37;;;8.53;;
15293;SDS011;7748;52.474;13.454;2023-04-10T10:48:13;11.30;;;7.37;;
15293;SDS011;7748;52.474;13.454;2023-04-10T10:50:49;9.67;;;7.43;;
15293;SDS011;7748;52.474;13.454;2023-04-10T10:53:31;13.60;;;8.87;;
15293;SDS011;7748;52.474;13.454;2023-04-10T10:59:02;9.53;;;7.20;;
15293;SDS011;7748;52.474;13.454;2023-04-10T11:01:30;8.50;;;7.00;;
15293;SDS011;7748;52.474;13.454;2023-04-10T11:03:59;17.43;;;7.53;;
15293;SDS011;7748;52.474;13.454;2023-04-10T11:12:13;10.47;;;7.30;;
15293;SDS011;7748;52.474;13.454;2023-04-10T11:14:42;11.50;;;7.40;;
15293;SDS011;7748;52.474;13.454;2023-04-10T11:17:11;13.37;;;7.10;;
15293;SDS011;7748;52.474;13.454;2023-04-10T11:22:39;14.07;;;8.57;;
15293;SDS011;7748;52.474;13.454;2023-04-10T11:25:48;13.73;;;8.43;;
15293;SDS011;7748;52.474;13.454;2023-04-10T11:28:33;13.80;;;9.50;;
15293;SDS011;7748;52.474;13.454;2023-04-10T11:31:17;14.27;;;9.67;;
15293;SDS011;7748;52.474;13.454;2023-04-10T11:33:48;15.03;;;9.27;;
15293;SDS011;7748;52.474;13.454;2023-04-10T11:36:17;16.90;;;10.67;;
15293;SDS011;7748;52.474;13.454;2023-04-10T11:38:56;13.70;;;9.70;;
15293;SDS011;7748;52.474;13.454;2023-04-10T11:41:25;14.50;;;9.83;;
15293;SDS011;7748;52.474;13.454;2023-04-10T11:43:56;16.67;;;9.50;;
15293;SDS011;7748;52.474;13.454;2023-04-10T11:46:24;15.67;;;9.53;;
15293;SDS011;7748;52.474;13.454;2023-04-10T11:48:52;13.40;;;9.07;;
15293;SDS011;7748;52.474;13.454;2023-04-10T11:51:22;15.03;;;8.97;;
15293;SDS011;7748;52.474;13.454;2023-04-10T11:54:02;14.43;;;9.23;;
15293;SDS011;7748;52.474;13.454;2023-04-10T11:56:33;15.20;;;10.33;;
15293;SDS011;7748;52.474;13.454;2023-04-10T11:59:02;12.13;;;9.00;;
15293;SDS011;7748;52.474;13.454;2023-04-10T12:01:33;12.60;;;8.70;;
15293;SDS011;7748;52.474;13.454;2023-04-10T12:04:01;11.07;;;7.10;;
15293;SDS011;7748;52.474;13.454;2023-04-10T12:06:30;9.90;;;6.60;;
15293;SDS011;7748;52.474;13.454;2023-04-10T12:08:58;10.93;;;7.27;;
15293;SDS011;7748;52.474;13.454;2023-04-10T12:11:27;12.10;;;7.57;;
15293;SDS011;7748;52.474;13.454;2023-04-10T12:13:55;15.40;;;9.20;;
15293;SDS011;7748;52.474;13.454;2023-04-10T12:16:26;14.67;;;7.67;;
15293;SDS011;7748;52.474;13.454;2023-04-10T12:18:54;12.80;;;7.17;;
15293;SDS011;7748;52.474;13.454;2023-04-10T12:21:23;11.87;;;7.00;;
15293;SDS011;7748;52.474;13.454;2023-04-10T12:23:51;9.80;;;6.73;;
15293;SDS011;7748;52.474;13.454;2023-04-10T12:26:19;11.00;;;6.23;;
15293;SDS011;7748;52.474;13.454;2023-04-10T12:28:52;11.23;;;6.47;;
15293;SDS011;7748;52.474;13.454;2023-04-10T12:31:27;8.20;;;4.70;;
15293;SDS011;7748;52.474;13.454;2023-04-10T12:33:56;8.80;;;5.97;;
15293;SDS011;7748;52.474;13.454;2023-04-10T12:36:25;10.60;;;6.10;;
15293;SDS011;7748;52.474;13.454;2023-04-10T12:38:55;9.30;;;5.27;;
15293;SDS011;7748;52.474;13.454;2023-04-10T12:41:24;8.37;;;5.53;;
15293;SDS011;7748;52.474;13.454;2023-04-10T12:44:05;8.30;;;5.97;;
15293;SDS011;7748;52.474;13.454;2023-04-10T12:46:34;8.70;;;5.23;;
15293;SDS011;7748;52.474;13.454;2023-04-10T12:49:09;9.27;;;6.07;;
15293;SDS011;7748;52.474;13.454;2023-04-10T12:51:45;10.50;;;6.53;;
15293;SDS011;7748;52.474;13.454;2023-04-10T12:54:26;11.90;;;7.07;;
15293;SDS011;7748;52.474;13.454;2023-04-10T12:56:56;10.00;;;6.77;;
15293;SDS011;7748;52.474;13.454;2023-04-10T12:59:25;9.60;;;5.70;;
15293;SDS011;7748;52.474;13.454;2023-04-10T13:01:54;12.33;;;7.43;;
15293;SDS011;7748;52.474;13.454;2023-04-10T13:04:22;8.90;;;5.67;;
15293;SDS011;7748;52.474;13.454;2023-04-10T13:06:50;13.43;;;7.70;;
15293;SDS011;7748;52.474;13.454;2023-04-10T13:09:18;11.00;;;6.40;;
15293;SDS011;7748;52.474;13.454;2023-04-10T13:11:46;16.20;;;13.47;;
15293;SDS011;7748;52.474;13.454;2023-04-10T13:14:17;7.03;;;5.47;;
15293;SDS011;7748;52.474;13.454;2023-04-10T13:16:46;12.63;;;6.27;;
15293;SDS011;7748;52.474;13.454;2023-04-10T13:19:14;8.73;;;6.60;;
15293;SDS011;7748;52.474;13.454;2023-04-10T13:21:42;10.57;;;7.03;;
15293;SDS011;7748;52.474;13.454;2023-04-10T13:24:09;14.60;;;6.90;;
15293;SDS011;7748;52.474;13.454;2023-04-10T13:26:40;9.03;;;6.60;;
15293;SDS011;7748;52.474;13.454;2023-04-10T13:29:08;13.00;;;7.13;;
15293;SDS011;7748;52.474;13.454;2023-04-10T13:31:36;10.90;;;7.20;;
15293;SDS011;7748;52.474;13.454;2023-04-10T13:34:07;11.03;;;7.67;;
15293;SDS011;7748;52.474;13.454;2023-04-10T13:36:35;14.00;;;6.80;;
15293;SDS011;7748;52.474;13.454;2023-04-10T13:39:03;12.50;;;7.23;;
15293;SDS011;7748;52.474;13.454;2023-04-10T13:41:30;11.93;;;6.50;;
15293;SDS011;7748;52.474;13.454;2023-04-10T13:43:58;11.67;;;6.97;;
15293;SDS011;7748;52.474;13.454;2023-04-10T13:46:26;12.13;;;7.23;;
15293;SDS011;7748;52.474;13.454;2023-04-10T13:48:54;9.73;;;6.17;;
15293;SDS011;7748;52.474;13.454;2023-04-10T13:51:23;8.67;;;5.70;;
15293;SDS011;7748;52.474;13.454;2023-04-10T13:53:51;15.67;;;6.23;;
15293;SDS011;7748;52.474;13.454;2023-04-10T13:56:19;11.03;;;7.27;;
15293;SDS011;7748;52.474;13.454;2023-04-10T13:58:47;13.47;;;6.73;;
15293;SDS011;7748;52.474;13.454;2023-04-10T14:01:15;10.37;;;6.10;;
15293;SDS011;7748;52.474;13.454;2023-04-10T14:03:43;10.20;;;6.37;;
15293;SDS011;7748;52.474;13.454;2023-04-10T14:06:11;8.53;;;6.00;;
15293;SDS011;7748;52.474;13.454;2023-04-10T14:08:42;14.90;;;6.20;;
15293;SDS011;7748;52.474;13.454;2023-04-10T14:11:11;11.40;;;6.70;;
15293;SDS011;7748;52.474;13.454;2023-04-10T14:13:38;8.13;;;6.33;;
15293;SDS011;7748;52.474;13.454;2023-04-10T14:16:06;7.90;;;5.83;;
15293;SDS011;7748;52.474;13.454;2023-04-10T14:18:34;15.43;;;7.00;;
15293;SDS011;7748;52.474;13.454;2023-04-10T14:21:03;12.20;;;6.90;;
15293;SDS011;7748;52.474;13.454;2023-04-10T14:23:32;11.30;;;6.87;;
15293;SDS011;7748;52.474;13.454;2023-04-10T14:26:02;13.10;;;6.87;;
15293;SDS011;7748;52.474;13.454;2023-04-10T14:28:31;13.27;;;7.90;;
15293;SDS011;7748;52.474;13.454;2023-04-10T14:30:59;9.70;;;6.97;;
15293;SDS011;7748;52.474;13.454;2023-04-10T14:33:27;13.10;;;7.80;;
15293;SDS011;7748;52.474;13.454;2023-04-10T14:35:55;13.50;;;7.07;;
15293;SDS011;7748;52.474;13.454;2023-04-10T14:38:22;12.70;;;7.53;;
15293;SDS011;7748;52.474;13.454;2023-04-10T14:40:50;8.50;;;6.33;;
15293;SDS011;7748;52.474;13.454;2023-04-10T14:43:20;9.70;;;6.47;;
15293;SDS011;7748;52.474;13.454;2023-04-10T14:45:48;8.13;;;6.43;;
15293;SDS011;7748;52.474;13.454;2023-04-10T14:48:16;11.97;;;7.53;;
15293;SDS011;7748;52.474;13.454;2023-04-10T14:50:45;9.30;;;5.87;;
15293;SDS011;7748;52.474;13.454;2023-04-10T14:53:13;10.70;;;7.27;;
15293;SDS011;7748;52.474;13.454;2023-04-10T14:55:41;9.10;;;7.40;;